Главная страница
METAR-TAF:

METAR-TAF

Аэропорты :

Кувейт, Кувейт

широта: 29-13N, долгота: 047-59E, высота над уровнем моря: 55 м

Текущие метеонаблюдения

Эта сводка был подготовлена 56 минут назад, в 05:00 UTC
Штиль
Температура 11°C
Влажность 66%
Давление 1015 hPa
Видимость: 4500 м
(Слабый) мгла

METAR: OKBK 240500Z 00000KT 4500 -HZ NSC 11/05 Q1015 NOSIG

Время: 08:56 (05:56 UTC)

Прогноз

Эта сводка был подготовлена 1 час и 11 минут назад, в 04:45 UTC
Прогноз действительный с 24-го 06 UTC до 25-го 12 UTC
Ветер 3 Узел переменных направлений
Видимость: 6000 м

TAF: OKBK 240445Z 2406/2512 VRB03KT 6000 NSC

Метеонаблюдения и прогнозы для более 4000 аэропортов (сводки METAR и TAF).

Имеющиеся станции представлены на карте желтыми и красными точками.

Чтобы увидеть название станции, наведите на нее мышь.

Затем щелкните, чтобы увидеть метеонаблюдения и метеопрогнозы.

Управление картой: чтобы увеличить масштаб, щелкните зеленые кнопки с черным крестиком; чтобы уменьшить масштаб, щелкните зеленую кнопку с тире; для просмотра соседних карт щелкайте зеленые стрелки.


METAR-TAF: